Time,TemperatureF,DewpointF,PressureIn,WindDirection,WindDirectionDegrees,WindSpeedMPH,WindSpeedGustMPH,Humidity,HourlyPrecipIn,Conditions,Clouds,dailyrainin,SoftwareType,DateUTC
2013-09-25 00:13:00,56.0,39.0,-100.00,ESE,120,2.0,4.0,52,0.00,,,-99.99,,2013-09-25 06:13:00,
2013-09-25 00:42:00,56.0,39.0,-100.00,WSW,258,2.0,3.0,53,0.00,,,-99.99,,2013-09-25 06:42:00,
2013-09-25 01:11:00,56.0,38.0,-100.00,NW,315,2.0,3.0,52,0.00,,,-99.99,,2013-09-25 07:11:00,
2013-09-25 01:42:00,53.0,44.0,-100.00,SSW,195,10.0,13.0,71,0.01,,,-99.99,,2013-09-25 07:42:00,
2013-09-25 02:11:00,51.0,45.0,-100.00,South,172,11.0,14.0,79,0.00,,,-99.99,,2013-09-25 08:11:00,
2013-09-25 02:42:00,51.0,45.0,-100.00,SSW,200,4.0,6.0,80,0.00,,,-99.99,,2013-09-25 08:42:00,
2013-09-25 03:11:00,51.0,44.0,-100.00,WSW,241,2.0,5.0,76,0.00,,,-99.99,,2013-09-25 09:11:00,
2013-09-25 03:43:00,51.0,42.0,-100.00,West,275,3.0,5.0,71,0.00,,,-99.99,,2013-09-25 09:43:00,
2013-09-25 04:12:00,50.0,43.0,-100.00,SW,236,2.0,4.0,76,0.00,,,-99.99,,2013-09-25 10:12:00,
2013-09-25 04:42:00,50.0,43.0,-100.00,ESE,117,2.0,4.0,78,0.00,,,-99.99,,2013-09-25 10:42:00,
2013-09-25 05:12:00,49.0,41.0,-100.00,South,191,1.0,2.0,72,0.00,,,-99.99,,2013-09-25 11:12:00,
2013-09-25 05:43:00,49.0,41.0,-100.00,NNW,339,3.0,4.0,74,0.00,,,-99.99,,2013-09-25 11:43:00,
2013-09-25 06:12:00,49.0,41.0,-100.00,NNW,347,5.0,8.0,74,0.00,,,-99.99,,2013-09-25 12:12:00,
2013-09-25 06:42:00,48.0,41.0,-100.00,North,6,3.0,5.0,78,0.00,,,-99.99,,2013-09-25 12:42:00,
2013-09-25 07:11:00,48.0,42.0,-100.00,WNW,295,1.0,2.0,80,0.00,,,-99.99,,2013-09-25 13:11:00,
2013-09-25 07:42:00,46.0,44.0,-100.00,SE,137,6.0,9.0,90,0.00,,,-99.99,,2013-09-25 13:42:00,
2013-09-25 08:11:00,48.0,42.0,-100.00,SSW,198,7.0,10.0,79,0.00,,,-99.99,,2013-09-25 14:11:00,
2013-09-25 08:43:00,48.0,42.0,-100.00,SW,219,4.0,6.0,79,0.00,,,-99.99,,2013-09-25 14:43:00,
2013-09-25 09:11:00,49.0,40.0,-100.00,SSE,164,5.0,8.0,71,0.00,,,-99.99,,2013-09-25 15:11:00,
2013-09-25 09:44:00,49.0,42.0,-100.00,WNW,289,4.0,6.0,76,0.00,,,-99.99,,2013-09-25 15:44:00,
2013-09-25 10:13:00,47.0,43.0,-100.00,West,275,4.0,8.0,86,0.00,,,-99.99,,2013-09-25 16:13:00,
2013-09-25 10:43:00,46.0,44.0,-100.00,West,277,4.0,5.0,91,0.00,,,-99.99,,2013-09-25 16:43:00,
2013-09-25 11:12:00,47.0,44.0,-100.00,WSW,244,3.0,5.0,88,0.00,,,-99.99,,2013-09-25 17:12:00,
2013-09-25 11:43:00,48.0,44.0,-100.00,SSE,164,7.0,9.0,86,0.00,,,-99.99,,2013-09-25 17:43:00,
2013-09-25 12:13:00,49.0,44.0,-100.00,SW,216,6.0,9.0,82,0.00,,,-99.99,,2013-09-25 18:13:00,
2013-09-25 12:42:00,49.0,42.0,-100.00,SSW,210,6.0,9.0,75,0.00,,,-99.99,,2013-09-25 18:42:00,
2013-09-25 13:11:00,49.0,42.0,-100.00,NW,319,5.0,9.0,77,0.00,,,-99.99,,2013-09-25 19:11:00,
2013-09-25 13:42:00,53.0,43.0,-100.00,SSW,212,4.0,6.0,69,0.00,,,-99.99,,2013-09-25 19:42:00,
2013-09-25 14:12:00,53.0,44.0,-100.00,West,263,7.0,11.0,70,0.00,,,-99.99,,2013-09-25 20:12:00,
2013-09-25 14:43:00,51.0,42.0,-100.00,WNW,284,6.0,11.0,71,0.00,,,-99.99,,2013-09-25 20:43:00,
2013-09-25 15:12:00,49.0,41.0,-100.00,WNW,284,10.0,14.0,72,0.00,,,-99.99,,2013-09-25 21:12:00,
2013-09-25 15:44:00,52.0,40.0,-100.00,West,277,6.0,13.0,66,0.00,,,-99.99,,2013-09-25 21:44:00,
2013-09-25 16:14:00,52.0,40.0,-100.00,West,274,8.0,12.0,64,0.00,,,-99.99,,2013-09-25 22:14:00,
2013-09-25 16:42:00,50.0,38.0,-100.00,West,264,7.0,11.0,63,0.00,,,-99.99,,2013-09-25 22:42:00,
2013-09-25 17:12:00,52.0,38.0,-100.00,West,272,5.0,9.0,57,0.00,,,-99.99,,2013-09-25 23:12:00,
2013-09-25 17:42:00,51.0,37.0,-100.00,WNW,301,6.0,10.0,60,0.00,,,-99.99,,2013-09-25 23:42:00,
2013-09-25 18:12:00,51.0,37.0,-100.00,WNW,301,1.0,4.0,59,0.00,,,-99.99,,2013-09-26 00:12:00,
2013-09-25 18:42:00,50.0,36.0,-100.00,West,260,2.0,4.0,60,0.00,,,-99.99,,2013-09-26 00:42:00,
2013-09-25 19:12:00,50.0,36.0,-100.00,WSW,250,5.0,9.0,59,0.00,,,-99.99,,2013-09-26 01:12:00,
2013-09-25 19:42:00,50.0,36.0,-100.00,WNW,284,8.0,14.0,58,0.00,,,0.04,,2013-09-26 01:42:00,
2013-09-25 20:12:00,48.0,37.0,-100.00,West,280,4.0,6.0,65,0.00,,,0.04,,2013-09-26 02:12:00,
2013-09-25 21:12:00,47.0,37.0,-100.00,SW,216,5.0,8.0,67,0.00,,,0.04,,2013-09-26 03:12:00,
2013-09-25 21:44:00,46.0,36.0,-100.00,SSW,203,2.0,4.0,69,0.00,,,0.04,,2013-09-26 03:44:00,
2013-09-25 22:13:00,45.0,36.0,-100.00,SSE,160,2.0,3.0,71,0.00,,,0.04,,2013-09-26 04:13:00,
2013-09-25 22:44:00,45.0,36.0,-100.00,SSW,209,4.0,5.0,73,0.00,,,0.04,,2013-09-26 04:44:00,
2013-09-25 23:12:00,44.0,36.0,-100.00,SW,229,2.0,5.0,75,0.00,,,0.04,,2013-09-26 05:12:00,
2013-09-25 23:43:00,44.0,36.0,-100.00,SW,226,1.0,4.0,75,0.00,,,0.04,,2013-09-26 05:43:00,